| Date | Time | Temp. (oF) | Dew Point (oF) | Rel. Hum. (%) | Press. (in.) | Wind Dir. | Wind Speed (mph) | Hourly Rainfall (in.) |
|
|---|---|---|---|---|---|---|---|---|---|
| 1 | 11/22 | 00:00 | 29 | 13 | 52 | 30.27 | WNW | 16 | 0.00 |
| 2 | 11/21 | 23:00 | 31 | 15 | 53 | 30.23 | WNW | 10 | 0.00 |
| 3 | 11/21 | 22:00 | 33 | 18 | 55 | 30.21 | NW | 7 | 0.00 |
| 4 | 11/21 | 21:00 | 36 | 23 | 59 | 30.18 | WNW | 13 | 0.00 |
| 5 | 11/21 | 20:00 | 37 | 24 | 61 | 30.16 | WNW | 3 | 0.00 |
| 6 | 11/21 | 19:00 | 37 | 25 | 63 | 30.15 | SW | 7 | 0.00 |
| 7 | 11/21 | 18:00 | 37 | 25 | 62 | 30.14 | WSW | 9 | 0.00 |
| 8 | 11/21 | 17:00 | 38 | 25 | 60 | 30.12 | W | 7 | 0.00 |
| 9 | 11/21 | 16:00 | 39 | 25 | 58 | 30.09 | WNW | 8 | 0.00 |
| 10 | 11/21 | 15:00 | 41 | 26 | 55 | 30.06 | WSW | 8 | 0.00 |
| 11 | 11/21 | 14:00 | 43 | 26 | 52 | 30.03 | W | 12 | 0.00 |
| 12 | 11/21 | 13:00 | 43 | 26 | 53 | 30.03 | W | 8 | 0.00 |
| 13 | 11/21 | 12:00 | 43 | 27 | 54 | 30.05 | WNW | 9 | 0.00 |
| 14 | 11/21 | 11:00 | 41 | 26 | 56 | 30.07 | WNW | 6 | 0.00 |
| 15 | 11/21 | 10:00 | 39 | 28 | 65 | 30.09 | SSW | 10 | 0.00 |
| 16 | 11/21 | 09:00 | 35 | 26 | 70 | 30.10 | SSE | 6 | 0.00 |
| 17 | 11/21 | 08:00 | 30 | 23 | 77 | 30.11 | S | 3 | 0.00 |
| 18 | 11/21 | 07:00 | 28 | 22 | 81 | 30.10 | S | 3 | 0.00 |
| 19 | 11/21 | 06:00 | 27 | 23 | 85 | 30.09 | SSW | 1 | 0.00 |
| 20 | 11/21 | 05:00 | 27 | 23 | 85 | 30.09 | S | 1 | 0.00 |
| 21 | 11/21 | 04:00 | 28 | 23 | 83 | 30.07 | SSW | 2 | 0.00 |
| 22 | 11/21 | 03:00 | 30 | 23 | 77 | 30.08 | SSW | 1 | 0.00 |
| 23 | 11/21 | 02:00 | 32 | 23 | 72 | 30.09 | S | 1 | 0.00 |
| 24 | 11/21 | 01:00 | 32 | 22 | 68 | 30.10 | WSW | 2 | 0.00 |